Ferndale, WA (98248)

11:35 PM PST on January 18, 2017 (GMT -0800)
Downtown Ferndale | | Change Station
Active Advisory: Small Craft Advisory Active Notice: Public Information Statement

Elev 56 ft 48.85 °N, 122.60 °W | Updated 3 seconds ago

Overcast
Overcast
47.5 °F
Feels Like 45 °F
N
5.8
Wind Variable Wind from SSW

Today
High -- | Low -- °F
--% Chance of Precip.
Yesterday
High -- | Low -- °F
Precip. -- in
Pressure 29.25 in
Visibility 9.0 miles
Clouds Mostly Cloudy 3600 ft
Overcast 5000 ft
Windchill 45 °F
Dew Point 46 °F
Humidity 94%
Rainfall 0.64 in
Snow Depth Not available.
7:55 AM 4:46 PM
Waning Gibbous, 56% visible
METAR KBLI 190653Z AUTO 15021G35KT 9SM -RA BKN036 OVC050 10/07 A2923 RMK AO2 PK WND 14037/0632 SLP904 P0001 T01000067
Pressure 29.25 in
Visibility 9.0 miles
Clouds Mostly Cloudy 3600 ft
Overcast 5000 ft
Windchill 45 °F
Dew Point 46 °F
Humidity 94%
Rainfall 0.64 in
Snow Depth Not available.
7:55 AM 4:46 PM
Waning Gibbous, 56% visible
METAR KBLI 190653Z AUTO 15021G35KT 9SM -RA BKN036 OVC050 10/07 A2923 RMK AO2 PK WND 14037/0632 SLP904 P0001 T01000067

Get Your Daily Forecast Email!

Thanks for signing up!

Be on the lookout for a verification email in your inbox.

You'll start receiving the daily forecast at 8 AM.

×

10-Day Weather Forecast

Almanac

Astronomy

Jan. 18, 2017 Rise Set
Actual Time
Civil Twilight
Nautical Twilight
Astronomical Twilight
Moon
Length of Visible Light
Length of Day
Tomorrow will be .
, % of the Moon is Illuminated

Today's Extremes

State Highs State Lows

Community

WunderPhotos

Upload Photos

1,962,540 photos uploaded!

WunderBlog® & News

Nearby

Air Quality

  Air Quality AQ Index Pollutant
Not available.

Snow Depth

Station Depth Elevation

Earthquake Activity

City Distance Mag. Time & Date
Minimum magnitude displayed is 2.5.

Coastal Water Temperatures

Place Temperature

Stations

Nearby Weather Stations

Station Location Temp. Windchill Dew Point Humidity Wind Precip. Elev Updated Type
                   

Watches & Warnings

Small Craft Advisory
Issued: 8:33 PM PST Jan. 18, 2017 – National Weather Service

... Small Craft Advisory remains in effect until 4 PM PST Thursday...

* winds... southeast 15 to 25 kt.

Precautionary/preparedness actions...

A Small Craft Advisory means that wind speeds of 21 to 33 knots are
expected to produce hazardous wave conditions to small craft.
Inexperienced mariners... especially those operating smaller vessels
should avoid navigating in these conditions.